TimeEST,TemperatureF,Dew PointF,Humidity,Sea Level PressureIn,VisibilityMPH,Wind Direction,Wind SpeedMPH,Gust SpeedMPH,PrecipitationIn,Events,Conditions,WindDirDegrees,DateUTC
12:53 AM,21.0,19.0,92,30.39,4.0,Calm,Calm,-,N/A,,Clear,0,2013-01-09 05:53:00
1:53 AM,21.0,19.0,92,30.38,4.0,Calm,Calm,-,N/A,,Clear,0,2013-01-09 06:53:00
2:53 AM,21.0,19.0,92,30.37,4.0,Calm,Calm,-,N/A,,Clear,0,2013-01-09 07:53:00
3:53 AM,21.0,19.0,92,30.36,4.0,Calm,Calm,-,N/A,,Clear,0,2013-01-09 08:53:00
4:53 AM,21.0,19.0,92,30.37,4.0,Calm,Calm,-,N/A,,Clear,0,2013-01-09 09:53:00
5:53 AM,21.0,18.0,88,30.36,4.0,Calm,Calm,-,N/A,,Clear,0,2013-01-09 10:53:00
6:53 AM,21.9,19.9,92,30.36,4.0,Calm,Calm,-,N/A,,Clear,0,2013-01-09 11:53:00
7:53 AM,23.0,21.0,92,30.37,3.0,Calm,Calm,-,N/A,,Clear,0,2013-01-09 12:53:00
8:16 AM,24.8,21.2,86,30.35,2.5,Calm,Calm,-,N/A,,Clear,0,2013-01-09 13:16:00
8:53 AM,27.0,24.1,89,30.37,2.5,Calm,Calm,-,N/A,,Clear,0,2013-01-09 13:53:00
9:42 AM,33.8,28.4,81,30.34,3.0,Calm,Calm,-,N/A,,Clear,0,2013-01-09 14:42:00
9:53 AM,33.1,30.0,89,30.35,2.5,Calm,Calm,-,N/A,,Clear,0,2013-01-09 14:53:00
10:16 AM,35.6,30.2,81,30.34,3.0,Calm,Calm,-,N/A,,Mostly Cloudy,0,2013-01-09 15:16:00
10:53 AM,37.9,32.0,79,30.35,4.0,Calm,Calm,-,N/A,,Haze,0,2013-01-09 15:53:00
11:53 AM,37.0,32.0,82,30.33,4.0,NW,6.9,-,N/A,,Haze,310,2013-01-09 16:53:00
12:53 PM,37.0,32.0,82,30.31,4.0,Calm,Calm,-,0.00,,Overcast,0,2013-01-09 17:53:00
1:53 PM,42.1,34.0,73,30.22,8.0,SSW,12.7,17.3,0.00,,Scattered Clouds,200,2013-01-09 18:53:00
2:53 PM,39.9,34.0,79,30.23,5.0,Calm,Calm,-,N/A,,Haze,0,2013-01-09 19:53:00
3:53 PM,41.0,35.1,79,30.23,7.0,West,3.5,-,N/A,,Overcast,280,2013-01-09 20:53:00
4:53 PM,44.1,36.0,73,30.25,10.0,WNW,9.2,-,N/A,,Overcast,300,2013-01-09 21:53:00
5:53 PM,39.0,33.1,79,30.25,10.0,West,3.5,-,N/A,,Clear,280,2013-01-09 22:53:00
6:53 PM,48.0,37.0,66,30.28,10.0,WSW,8.1,-,N/A,,Clear,240,2013-01-09 23:53:00
7:53 PM,48.0,35.1,61,30.29,10.0,SW,9.2,-,N/A,,Clear,230,2013-01-10 00:53:00
9:53 PM,46.0,30.0,54,30.31,10.0,WSW,6.9,-,N/A,,Clear,250,2013-01-10 02:53:00
10:53 PM,45.0,28.0,52,30.32,10.0,West,5.8,-,N/A,,Clear,260,2013-01-10 03:53:00
11:53 PM,42.1,27.0,55,30.35,10.0,WNW,6.9,-,N/A,,Clear,290,2013-01-10 04:53:00